createdAt,value
2022-07-30T00:00:51.113Z,3
2022-07-30T00:01:51.814Z,3
2022-07-30T00:02:51.059Z,3
2022-07-30T00:03:51.543Z,3
2022-07-30T00:04:51.089Z,3
2022-07-30T00:05:51.161Z,3
2022-07-30T00:06:51.272Z,3
2022-07-30T00:07:51.044Z,3
2022-07-30T00:08:51.098Z,3
2022-07-30T00:13:51.120Z,3
2022-07-30T00:14:51.114Z,3
2022-07-30T00:15:51.163Z,3
2022-07-30T00:16:51.093Z,3
2022-07-30T00:17:51.039Z,3
2022-07-30T00:18:51.582Z,3
2022-07-30T00:19:51.043Z,3
2022-07-30T00:20:51.089Z,4
2022-07-30T00:21:51.026Z,3
2022-07-30T00:22:51.021Z,3
2022-07-30T00:24:01.515Z,4
2022-07-30T00:24:51.037Z,4
2022-07-30T00:25:51.034Z,4
2022-07-30T00:26:51.136Z,3
2022-07-30T00:27:51.098Z,3
2022-07-30T00:28:51.037Z,4
2022-07-30T00:29:51.023Z,4
2022-07-30T00:30:54.941Z,4
2022-07-30T00:31:51.124Z,4
2022-07-30T00:32:51.167Z,3
2022-07-30T00:33:51.085Z,4
2022-07-30T00:34:51.083Z,4
2022-07-30T00:35:51.045Z,4
2022-07-30T00:36:51.027Z,4
2022-07-30T00:37:51.054Z,3
2022-07-30T00:38:51.080Z,4
2022-07-30T00:39:51.093Z,4
2022-07-30T00:40:51.080Z,3
2022-07-30T00:41:51.085Z,4
2022-07-30T00:42:51.026Z,4
2022-07-30T00:43:51.110Z,3
2022-07-30T00:44:51.037Z,4
2022-07-30T00:45:51.197Z,4
2022-07-30T00:46:51.122Z,4
2022-07-30T00:47:51.138Z,4
2022-07-30T00:48:51.162Z,4
2022-07-30T00:49:51.141Z,4
2022-07-30T00:50:51.144Z,4
2022-07-30T00:51:51.042Z,4
2022-07-30T00:52:51.029Z,4
2022-07-30T00:53:51.046Z,4
2022-07-30T00:54:51.083Z,4
2022-07-30T00:55:51.138Z,4
2022-07-30T00:56:51.045Z,4
2022-07-30T00:57:51.038Z,4
2022-07-30T00:58:51.099Z,4
2022-07-30T00:59:51.050Z,4
2022-07-30T01:00:51.156Z,4
2022-07-30T01:01:51.291Z,4
2022-07-30T01:02:51.128Z,4
2022-07-30T01:03:51.045Z,4
2022-07-30T01:04:51.019Z,4
2022-07-30T01:05:51.144Z,4
2022-07-30T01:06:51.144Z,4
2022-07-30T01:07:51.048Z,3
2022-07-30T01:08:51.165Z,3
2022-07-30T01:09:51.161Z,4
2022-07-30T01:10:51.098Z,3
2022-07-30T01:11:51.033Z,4
2022-07-30T01:12:51.056Z,4
2022-07-30T01:13:51.108Z,4
2022-07-30T01:14:51.098Z,4
2022-07-30T01:15:51.117Z,4
2022-07-30T01:16:51.171Z,4
2022-07-30T01:17:52.869Z,4
2022-07-30T01:18:51.129Z,4
2022-07-30T01:19:51.133Z,4
2022-07-30T01:20:51.129Z,4
2022-07-30T01:21:51.069Z,4
2022-07-30T01:22:51.158Z,4
2022-07-30T01:23:51.123Z,4
2022-07-30T01:24:51.044Z,4
2022-07-30T01:25:51.055Z,4
2022-07-30T01:26:51.055Z,4
2022-07-30T01:27:51.041Z,4
2022-07-30T01:28:51.092Z,4
2022-07-30T01:29:51.044Z,4
2022-07-30T01:30:51.061Z,4
2022-07-30T01:31:51.130Z,5
2022-07-30T01:32:51.060Z,4
2022-07-30T01:33:51.132Z,5
2022-07-30T01:34:51.105Z,4
2022-07-30T01:35:51.127Z,4
2022-07-30T01:36:51.057Z,4
2022-07-30T01:37:51.132Z,4
2022-07-30T01:38:51.056Z,4
2022-07-30T01:39:51.065Z,4
2022-07-30T01:40:51.038Z,5
2022-07-30T01:41:51.042Z,5
2022-07-30T01:42:51.040Z,4
2022-07-30T01:43:51.193Z,5
2022-07-30T01:44:51.120Z,5
2022-07-30T01:45:51.307Z,4
2022-07-30T01:46:51.217Z,4
2022-07-30T01:47:51.177Z,4
2022-07-30T01:48:51.184Z,5
2022-07-30T01:49:51.372Z,4
2022-07-30T01:50:51.111Z,4
2022-07-30T01:51:51.104Z,4
2022-07-30T01:52:51.163Z,4
2022-07-30T01:53:51.064Z,4
2022-07-30T01:54:51.056Z,4
2022-07-30T01:55:51.063Z,5
2022-07-30T01:56:51.059Z,4
2022-07-30T01:57:51.103Z,4
2022-07-30T01:58:51.178Z,5
2022-07-30T01:59:51.073Z,5
2022-07-30T02:00:51.132Z,5
2022-07-30T02:01:51.083Z,4
2022-07-30T02:02:51.069Z,4
2022-07-30T02:03:51.171Z,5
2022-07-30T02:04:51.089Z,5
2022-07-30T02:05:51.120Z,5
2022-07-30T02:06:51.033Z,5
2022-07-30T02:07:51.059Z,5
2022-07-30T02:08:51.143Z,5
2022-07-30T02:09:51.049Z,5
2022-07-30T02:10:51.053Z,5
2022-07-30T02:11:51.104Z,5
2022-07-30T02:12:51.115Z,5
2022-07-30T02:13:51.103Z,5
2022-07-30T02:14:51.061Z,5
2022-07-30T02:15:51.052Z,5
2022-07-30T02:16:51.067Z,5
2022-07-30T02:17:51.105Z,5
2022-07-30T02:18:51.110Z,6
2022-07-30T02:19:51.206Z,5
2022-07-30T02:20:51.104Z,5
2022-07-30T02:21:51.122Z,5
2022-07-30T02:22:51.122Z,5
2022-07-30T02:23:51.144Z,5
2022-07-30T02:24:51.057Z,5
2022-07-30T02:25:51.120Z,6
2022-07-30T02:26:51.110Z,5
2022-07-30T02:27:51.055Z,6
2022-07-30T02:28:51.065Z,5
2022-07-30T02:29:51.155Z,6
2022-07-30T02:30:51.067Z,6
2022-07-30T02:31:51.110Z,5
2022-07-30T02:32:51.098Z,6
2022-07-30T02:33:51.223Z,6
2022-07-30T02:34:51.560Z,6
2022-07-30T02:35:51.108Z,6
2022-07-30T02:36:51.091Z,6
2022-07-30T02:37:51.130Z,6
2022-07-30T02:38:51.143Z,6
2022-07-30T02:39:51.137Z,6
2022-07-30T02:40:51.131Z,6
2022-07-30T02:41:51.063Z,6
2022-07-30T02:42:51.109Z,6
2022-07-30T02:43:51.085Z,6
2022-07-30T02:44:51.161Z,6
2022-07-30T02:45:51.073Z,6
2022-07-30T02:46:51.204Z,6
2022-07-30T02:47:51.194Z,5
2022-07-30T02:48:51.141Z,6
2022-07-30T02:49:51.066Z,6
2022-07-30T02:50:51.090Z,6
2022-07-30T02:51:51.086Z,6
2022-07-30T02:52:51.065Z,6
2022-07-30T02:53:51.979Z,7
2022-07-30T02:54:51.134Z,6
2022-07-30T02:55:51.136Z,7
2022-07-30T02:56:51.079Z,6
2022-07-30T02:57:51.085Z,7
2022-07-30T02:58:51.075Z,7
2022-07-30T02:59:51.172Z,7
2022-07-30T03:00:51.143Z,7
2022-07-30T03:01:51.190Z,7
2022-07-30T03:02:51.089Z,7
2022-07-30T03:03:51.098Z,7
2022-07-30T03:04:51.080Z,7
2022-07-30T03:05:51.092Z,7
2022-07-30T03:06:51.248Z,7
2022-07-30T03:07:51.198Z,7
2022-07-30T03:08:51.135Z,7
2022-07-30T03:09:52.373Z,7
2022-07-30T03:10:51.123Z,7
2022-07-30T03:11:51.068Z,7
2022-07-30T03:12:51.070Z,7
2022-07-30T03:13:51.175Z,7
2022-07-30T03:14:51.108Z,6
2022-07-30T03:15:51.181Z,7
2022-07-30T03:16:51.162Z,7
2022-07-30T03:17:51.087Z,7
2022-07-30T03:18:51.202Z,7
2022-07-30T03:19:51.065Z,7
2022-07-30T03:20:51.089Z,7
2022-07-30T03:21:51.121Z,7
2022-07-30T03:22:51.196Z,7
2022-07-30T03:23:51.127Z,7
2022-07-30T03:24:51.071Z,8
2022-07-30T03:25:51.081Z,7
2022-07-30T03:26:51.081Z,8
2022-07-30T03:27:51.132Z,8
2022-07-30T03:28:51.132Z,7
2022-07-30T03:29:51.123Z,8
2022-07-30T03:30:51.187Z,8
2022-07-30T03:31:51.222Z,8
2022-07-30T03:32:51.186Z,7
2022-07-30T03:33:51.094Z,8
2022-07-30T03:34:51.075Z,8
2022-07-30T03:35:51.122Z,8
2022-07-30T03:36:51.131Z,8
2022-07-30T03:37:51.085Z,8
2022-07-30T03:38:51.114Z,8
2022-07-30T03:39:51.104Z,7
2022-07-30T03:40:51.092Z,8
2022-07-30T03:41:51.267Z,8
2022-07-30T03:42:51.323Z,8
2022-07-30T03:43:51.477Z,8
2022-07-30T03:44:51.477Z,8
2022-07-30T03:45:51.487Z,8
2022-07-30T03:46:51.107Z,8
2022-07-30T03:47:51.100Z,8
2022-07-30T03:48:51.492Z,8
2022-07-30T03:49:51.164Z,9
2022-07-30T03:50:51.123Z,8
2022-07-30T03:51:51.185Z,8
2022-07-30T03:52:51.084Z,8
2022-07-30T03:53:51.106Z,8
2022-07-30T03:54:51.100Z,8
2022-07-30T03:55:51.073Z,8
2022-07-30T03:56:51.231Z,8
2022-07-30T03:57:51.234Z,9
2022-07-30T03:58:51.139Z,8
2022-07-30T03:59:51.138Z,8
2022-07-30T04:00:51.160Z,8
2022-07-30T04:01:51.218Z,8
2022-07-30T04:02:51.176Z,8
2022-07-30T04:03:51.202Z,8
2022-07-30T04:04:51.126Z,8
2022-07-30T04:05:51.168Z,8
2022-07-30T04:06:51.083Z,8
2022-07-30T04:07:51.192Z,9
2022-07-30T04:08:51.095Z,9
2022-07-30T04:09:51.085Z,8
2022-07-30T04:10:51.218Z,8
2022-07-30T04:11:51.130Z,9
2022-07-30T04:12:51.113Z,8
2022-07-30T04:13:51.146Z,8
2022-07-30T04:14:51.135Z,8
2022-07-30T04:16:34.295Z,9
2022-07-30T04:16:51.151Z,9
2022-07-30T04:17:51.148Z,8
2022-07-30T04:18:51.173Z,9
2022-07-30T04:19:51.079Z,8
2022-07-30T04:20:51.172Z,8
2022-07-30T04:21:51.075Z,9
2022-07-30T04:22:51.086Z,9
2022-07-30T04:24:03.734Z,8
2022-07-30T04:24:51.098Z,9
2022-07-30T04:25:51.135Z,9
2022-07-30T04:26:51.066Z,9
2022-07-30T04:28:02.970Z,9
2022-07-30T04:28:51.125Z,8
2022-07-30T04:29:51.116Z,8
2022-07-30T04:30:51.150Z,9
2022-07-30T04:31:51.077Z,8
2022-07-30T04:32:51.154Z,8
2022-07-30T04:33:51.094Z,8
2022-07-30T04:34:51.161Z,8
2022-07-30T04:35:52.359Z,9
2022-07-30T04:36:51.098Z,8
2022-07-30T04:37:51.177Z,8
2022-07-30T04:38:51.207Z,8
2022-07-30T04:39:51.150Z,8
2022-07-30T04:40:51.092Z,8
2022-07-30T04:41:51.089Z,8
2022-07-30T04:42:51.077Z,8
2022-07-30T04:43:51.098Z,8
2022-07-30T04:44:51.118Z,8
2022-07-30T04:45:51.131Z,8
2022-07-30T04:46:51.152Z,8
2022-07-30T04:47:51.152Z,8
2022-07-30T04:48:51.204Z,8
2022-07-30T04:49:51.079Z,8
2022-07-30T04:50:51.171Z,8
2022-07-30T04:51:51.086Z,8
2022-07-30T04:52:51.172Z,8
2022-07-30T04:53:51.195Z,8
2022-07-30T04:54:51.077Z,8
2022-07-30T04:55:51.106Z,8
2022-07-30T04:56:53.481Z,8
2022-07-30T04:57:51.101Z,8
2022-07-30T04:58:51.119Z,8
2022-07-30T04:59:51.211Z,8
2022-07-30T05:00:51.173Z,8
2022-07-30T05:01:51.235Z,9
2022-07-30T05:02:51.101Z,8
2022-07-30T05:03:51.095Z,8
2022-07-30T05:04:51.148Z,8
2022-07-30T05:05:56.779Z,8
2022-07-30T05:06:51.163Z,8
2022-07-30T05:07:51.167Z,9
2022-07-30T05:08:51.103Z,9
2022-07-30T05:09:51.088Z,9
2022-07-30T05:10:51.087Z,8
2022-07-30T05:11:51.190Z,8
2022-07-30T05:12:51.123Z,8
2022-07-30T05:13:51.142Z,8
2022-07-30T05:14:51.150Z,9
2022-07-30T05:15:51.155Z,8
2022-07-30T05:16:51.083Z,8
2022-07-30T05:17:51.136Z,8
2022-07-30T05:18:51.141Z,8
2022-07-30T05:19:51.145Z,8
2022-07-30T05:20:51.192Z,8
2022-07-30T05:21:51.146Z,8
2022-07-30T05:22:51.365Z,8
2022-07-30T05:23:51.107Z,8
2022-07-30T05:24:51.095Z,8
2022-07-30T05:25:51.181Z,8
2022-07-30T05:26:51.097Z,9
2022-07-30T05:27:51.143Z,8
2022-07-30T05:28:55.042Z,8
2022-07-30T05:29:51.165Z,8
2022-07-30T05:30:51.174Z,8
2022-07-30T05:31:51.083Z,8
2022-07-30T05:32:51.138Z,8
2022-07-30T05:33:51.108Z,9
2022-07-30T05:34:51.137Z,9
2022-07-30T05:35:51.146Z,8
2022-07-30T05:36:51.096Z,8
2022-07-30T05:37:51.159Z,8
2022-07-30T05:38:51.087Z,8
2022-07-30T05:40:02.719Z,8
2022-07-30T05:40:51.086Z,8
2022-07-30T05:41:51.182Z,9
2022-07-30T05:42:51.192Z,9
2022-07-30T05:43:55.817Z,9
2022-07-30T05:44:51.095Z,9
2022-07-30T05:45:51.268Z,9
2022-07-30T05:46:51.073Z,9
2022-07-30T05:47:51.301Z,8
2022-07-30T05:48:51.221Z,8
2022-07-30T05:49:51.150Z,9
2022-07-30T05:50:51.121Z,9
2022-07-30T05:51:51.156Z,9
2022-07-30T05:52:51.158Z,8
2022-07-30T05:53:56.128Z,9
2022-07-30T05:54:51.094Z,9
2022-07-30T05:55:51.171Z,9
2022-07-30T05:56:51.173Z,8
2022-07-30T05:57:51.097Z,8
2022-07-30T05:58:51.193Z,9
2022-07-30T05:59:51.198Z,8
2022-07-30T06:00:51.111Z,9
2022-07-30T06:01:51.286Z,9
2022-07-30T06:02:51.122Z,8
2022-07-30T06:03:51.122Z,9
2022-07-30T06:04:51.217Z,9
2022-07-30T06:05:51.085Z,8
2022-07-30T06:06:51.145Z,8
2022-07-30T06:07:51.095Z,9
2022-07-30T06:08:51.127Z,9
2022-07-30T06:09:51.161Z,9
2022-07-30T06:10:51.156Z,9
2022-07-30T06:11:51.102Z,9
2022-07-30T06:12:51.110Z,9
2022-07-30T06:13:51.097Z,9
2022-07-30T06:14:51.192Z,8
2022-07-30T06:15:51.257Z,9
2022-07-30T06:16:51.103Z,9
2022-07-30T06:18:01.784Z,9
2022-07-30T06:18:51.106Z,9
2022-07-30T06:19:51.097Z,9
2022-07-30T06:20:51.121Z,9
2022-07-30T06:22:05.808Z,9
2022-07-30T06:22:51.098Z,9
2022-07-30T06:23:51.153Z,9
2022-07-30T06:24:51.162Z,9
2022-07-30T06:25:51.094Z,9
2022-07-30T06:26:51.158Z,9
2022-07-30T06:27:51.097Z,9
2022-07-30T06:28:51.120Z,9
2022-07-30T06:29:51.115Z,9
2022-07-30T06:30:51.231Z,9
2022-07-30T06:31:51.144Z,9
2022-07-30T06:32:51.106Z,9
2022-07-30T06:33:51.097Z,10
2022-07-30T06:34:59.639Z,10
2022-07-30T06:35:51.097Z,8
2022-07-30T06:36:51.104Z,10
2022-07-30T06:38:05.792Z,10
2022-07-30T06:38:51.129Z,10
2022-07-30T06:39:57.790Z,10
2022-07-30T06:40:51.150Z,10
2022-07-30T06:41:51.153Z,10
2022-07-30T06:42:51.109Z,10
2022-07-30T06:43:51.180Z,10
2022-07-30T06:44:51.102Z,10
2022-07-30T06:45:51.238Z,11
2022-07-30T06:46:51.098Z,11
2022-07-30T06:47:51.282Z,12
2022-07-30T06:48:51.251Z,13
2022-07-30T06:49:51.198Z,13
2022-07-30T06:50:51.107Z,14
2022-07-30T06:51:51.320Z,12
2022-07-30T06:52:51.142Z,13
2022-07-30T06:53:51.108Z,13
2022-07-30T06:54:51.109Z,13
2022-07-30T06:55:51.110Z,14
2022-07-30T06:56:51.148Z,14
2022-07-30T06:57:51.144Z,14
2022-07-30T06:58:51.153Z,14
2022-07-30T06:59:56.415Z,14
2022-07-30T07:00:51.111Z,14
2022-07-30T07:01:51.131Z,13
2022-07-30T07:02:51.124Z,14
2022-07-30T07:03:51.104Z,14
2022-07-30T07:04:51.114Z,14
2022-07-30T07:05:51.155Z,13
2022-07-30T07:06:51.120Z,14
2022-07-30T07:07:59.182Z,13
2022-07-30T07:08:51.135Z,13
2022-07-30T07:09:51.120Z,13
2022-07-30T07:10:51.100Z,12
2022-07-30T07:11:51.107Z,13
2022-07-30T07:12:51.153Z,12
2022-07-30T07:13:51.161Z,13
2022-07-30T07:14:51.110Z,13
2022-07-30T07:15:51.174Z,13
2022-07-30T07:16:51.156Z,14
2022-07-30T07:17:51.208Z,14
2022-07-30T07:18:51.112Z,14
2022-07-30T07:20:00.945Z,14
2022-07-30T07:20:51.143Z,13
2022-07-30T07:21:51.100Z,14
2022-07-30T07:22:51.220Z,13
2022-07-30T07:23:51.140Z,13
2022-07-30T07:24:51.107Z,13
2022-07-30T07:25:51.133Z,13
2022-07-30T07:26:51.099Z,13
2022-07-30T07:28:12.626Z,14
2022-07-30T07:28:51.106Z,14
2022-07-30T07:30:04.505Z,14
2022-07-30T07:30:51.181Z,14
2022-07-30T07:32:06.273Z,14
2022-07-30T07:32:51.114Z,14
2022-07-30T07:33:51.182Z,14
2022-07-30T07:34:51.202Z,15
2022-07-30T07:35:51.094Z,13
2022-07-30T07:36:51.121Z,12
2022-07-30T07:37:51.107Z,13
2022-07-30T07:38:51.110Z,14
2022-07-30T07:39:51.109Z,13
2022-07-30T07:40:51.137Z,13
2022-07-30T07:41:51.160Z,14
2022-07-30T07:42:51.121Z,13
2022-07-30T07:43:51.123Z,12
2022-07-30T07:44:51.098Z,12
2022-07-30T07:45:51.224Z,13
2022-07-30T07:46:51.211Z,10
2022-07-30T07:47:53.027Z,12
2022-07-30T07:48:51.229Z,12
2022-07-30T07:49:51.184Z,12
2022-07-30T07:50:51.103Z,12
2022-07-30T07:51:51.120Z,12
2022-07-30T07:52:51.206Z,11
2022-07-30T07:54:05.912Z,10
2022-07-30T07:54:51.151Z,10
2022-07-30T07:55:51.227Z,12
2022-07-30T07:56:51.125Z,12
2022-07-30T07:57:51.316Z,11
2022-07-30T07:58:56.306Z,11
2022-07-30T07:59:51.135Z,11
2022-07-30T08:00:51.152Z,11
2022-07-30T08:01:51.221Z,10
2022-07-30T08:02:51.293Z,10
2022-07-30T08:03:51.141Z,11
2022-07-30T08:04:51.123Z,12
2022-07-30T08:05:59.071Z,11
2022-07-30T08:06:51.110Z,11
2022-07-30T08:07:51.109Z,12
2022-07-30T08:08:51.250Z,12
2022-07-30T08:09:51.206Z,11
2022-07-30T08:10:51.111Z,11
2022-07-30T08:11:51.117Z,11
2022-07-30T08:12:51.123Z,11
2022-07-30T08:13:52.508Z,12
2022-07-30T08:14:51.128Z,11
2022-07-30T08:15:51.153Z,12
2022-07-30T08:16:51.241Z,11
2022-07-30T08:17:51.125Z,10
2022-07-30T08:18:51.144Z,11
2022-07-30T08:19:51.171Z,11
2022-07-30T08:20:51.220Z,11
2022-07-30T08:21:51.115Z,12
2022-07-30T08:22:51.166Z,10
2022-07-30T08:23:51.195Z,12
2022-07-30T08:24:51.111Z,10
2022-07-30T08:25:51.102Z,10
2022-07-30T08:26:51.109Z,11
2022-07-30T08:27:51.107Z,12
2022-07-30T08:28:51.135Z,11
2022-07-30T08:29:51.160Z,11
2022-07-30T08:30:51.140Z,12
2022-07-30T08:31:51.107Z,11
2022-07-30T08:32:51.131Z,11
2022-07-30T08:33:51.125Z,11
2022-07-30T08:34:51.117Z,10
2022-07-30T08:35:59.375Z,10
2022-07-30T08:36:51.177Z,10
2022-07-30T08:37:51.174Z,10
2022-07-30T08:38:51.133Z,10
2022-07-30T08:39:51.111Z,11
2022-07-30T08:40:51.122Z,12
2022-07-30T08:41:51.122Z,11
2022-07-30T08:42:51.214Z,9
2022-07-30T08:43:51.208Z,10
2022-07-30T08:44:51.167Z,10
2022-07-30T08:45:51.129Z,10
2022-07-30T08:46:51.146Z,9
2022-07-30T08:47:51.205Z,8
2022-07-30T08:48:51.130Z,10
2022-07-30T08:49:51.133Z,11
2022-07-30T08:50:51.172Z,11
2022-07-30T08:51:51.219Z,11
2022-07-30T08:52:51.109Z,11
2022-07-30T08:53:51.126Z,9
2022-07-30T08:54:51.127Z,9
2022-07-30T08:55:54.516Z,8
2022-07-30T08:56:51.212Z,9
2022-07-30T08:57:51.204Z,9
2022-07-30T08:58:51.185Z,11
2022-07-30T08:59:59.435Z,11
2022-07-30T09:00:51.148Z,10
2022-07-30T09:01:51.112Z,10
2022-07-30T09:02:51.115Z,10
2022-07-30T09:03:51.127Z,10
2022-07-30T09:04:51.151Z,11
2022-07-30T09:05:51.153Z,12
2022-07-30T09:06:51.167Z,12
2022-07-30T09:07:51.173Z,12
2022-07-30T09:08:51.193Z,12
2022-07-30T09:09:51.186Z,12
2022-07-30T09:10:53.110Z,13
2022-07-30T09:11:51.147Z,13
2022-07-30T09:12:51.178Z,13
2022-07-30T09:13:51.223Z,12
2022-07-30T09:14:51.225Z,14
2022-07-30T09:15:51.158Z,12
2022-07-30T09:16:51.356Z,13
2022-07-30T09:17:51.157Z,13
2022-07-30T09:18:51.157Z,12
2022-07-30T09:19:51.194Z,11
2022-07-30T09:20:51.158Z,12
2022-07-30T09:21:51.126Z,11
2022-07-30T09:22:51.178Z,11
2022-07-30T09:23:51.298Z,11
2022-07-30T09:24:51.135Z,11
2022-07-30T09:25:51.192Z,12
2022-07-30T09:26:51.178Z,10
2022-07-30T09:27:51.203Z,11
2022-07-30T09:28:51.213Z,10
2022-07-30T09:29:51.213Z,9
2022-07-30T09:30:51.222Z,9
2022-07-30T09:31:51.124Z,9
2022-07-30T09:32:51.170Z,11
2022-07-30T09:33:51.209Z,11
2022-07-30T09:34:51.132Z,9
2022-07-30T09:35:51.123Z,10
2022-07-30T09:36:51.124Z,11
2022-07-30T09:37:51.154Z,11
2022-07-30T09:38:51.140Z,12
2022-07-30T09:39:59.014Z,11
2022-07-30T09:40:51.189Z,11
2022-07-30T09:41:51.112Z,11
2022-07-30T09:42:51.179Z,11
2022-07-30T09:43:51.211Z,12
2022-07-30T09:44:51.111Z,12
2022-07-30T09:45:56.686Z,10
2022-07-30T09:46:51.158Z,9
2022-07-30T09:47:51.187Z,10
2022-07-30T09:48:51.330Z,9
2022-07-30T09:49:51.389Z,11
2022-07-30T09:50:51.341Z,10
2022-07-30T09:51:56.436Z,11
2022-07-30T09:52:51.363Z,10
2022-07-30T09:53:51.455Z,10
2022-07-30T09:55:51.178Z,11
2022-07-30T09:56:53.766Z,10
2022-07-30T09:57:54.054Z,10
2022-07-30T09:58:51.127Z,10
2022-07-30T09:59:51.237Z,8
2022-07-30T10:00:51.191Z,10
2022-07-30T10:01:54.955Z,10
2022-07-30T10:02:51.130Z,11
2022-07-30T10:03:51.130Z,11
2022-07-30T10:04:51.121Z,11
2022-07-30T10:05:51.143Z,10
2022-07-30T10:06:51.132Z,10
2022-07-30T10:07:51.538Z,11
2022-07-30T10:08:51.182Z,11
2022-07-30T10:09:51.114Z,9
2022-07-30T10:10:51.177Z,9
2022-07-30T10:11:51.117Z,8
2022-07-30T10:12:51.124Z,8
2022-07-30T10:13:51.136Z,8
2022-07-30T10:14:51.160Z,8
2022-07-30T10:15:51.207Z,9
2022-07-30T10:16:51.183Z,9
2022-07-30T10:17:51.130Z,9
2022-07-30T10:18:51.215Z,9
2022-07-30T10:19:51.113Z,9
2022-07-30T10:20:51.123Z,9
2022-07-30T10:21:51.136Z,8
2022-07-30T10:22:51.157Z,9
2022-07-30T10:23:51.130Z,9
2022-07-30T10:24:51.132Z,9
2022-07-30T10:25:54.862Z,9
2022-07-30T10:26:51.113Z,9
2022-07-30T10:27:51.180Z,9
2022-07-30T10:28:51.139Z,8
2022-07-30T10:29:51.219Z,9
2022-07-30T10:30:51.242Z,9
2022-07-30T10:31:54.583Z,9
2022-07-30T10:32:52.602Z,9
2022-07-30T10:33:51.141Z,9
2022-07-30T10:34:51.245Z,8
2022-07-30T10:35:51.170Z,9
2022-07-30T10:36:51.184Z,9
2022-07-30T10:37:51.142Z,9
2022-07-30T10:38:52.870Z,8
2022-07-30T10:39:51.139Z,8
2022-07-30T10:40:51.143Z,8
2022-07-30T10:41:54.167Z,7
2022-07-30T10:42:51.162Z,9
2022-07-30T10:43:51.170Z,8
2022-07-30T10:44:51.140Z,9
2022-07-30T10:45:51.555Z,8
2022-07-30T10:46:51.178Z,8
2022-07-30T10:47:51.131Z,8
2022-07-30T10:48:51.316Z,8
2022-07-30T10:49:51.210Z,8
2022-07-30T10:50:51.203Z,9
2022-07-30T10:51:51.141Z,8
2022-07-30T10:52:51.131Z,8
2022-07-30T10:53:51.138Z,8
2022-07-30T10:54:51.220Z,8
2022-07-30T10:55:51.158Z,7
2022-07-30T10:56:51.189Z,7
2022-07-30T10:57:51.239Z,8
2022-07-30T10:58:51.159Z,8
2022-07-30T10:59:51.186Z,8
2022-07-30T11:00:51.126Z,8
2022-07-30T11:01:53.513Z,8
2022-07-30T11:02:51.122Z,8
2022-07-30T11:03:51.191Z,8
2022-07-30T11:04:51.212Z,7
2022-07-30T11:05:51.120Z,7
2022-07-30T11:06:51.142Z,7
2022-07-30T11:07:51.135Z,6
2022-07-30T11:08:51.124Z,8
2022-07-30T11:10:05.927Z,7
2022-07-30T11:10:51.221Z,8
2022-07-30T11:12:02.200Z,8
2022-07-30T11:12:52.740Z,7
2022-07-30T11:13:51.157Z,6
2022-07-30T11:14:51.142Z,7
2022-07-30T11:15:51.130Z,8
2022-07-30T11:16:51.187Z,8
2022-07-30T11:17:51.208Z,8
2022-07-30T11:19:19.583Z,7
2022-07-30T11:19:57.535Z,7
2022-07-30T11:20:51.176Z,7
2022-07-30T11:21:51.134Z,8
2022-07-30T11:22:51.319Z,8
2022-07-30T11:23:54.765Z,7
2022-07-30T11:24:51.247Z,5
2022-07-30T11:25:54.704Z,6
2022-07-30T11:26:51.141Z,6
2022-07-30T11:27:51.151Z,8
2022-07-30T11:28:51.157Z,7
2022-07-30T11:29:51.718Z,7
2022-07-30T11:30:51.247Z,7
2022-07-30T11:32:07.464Z,6
2022-07-30T11:32:51.412Z,6
2022-07-30T11:33:51.170Z,7
2022-07-30T11:34:51.142Z,7
2022-07-30T11:35:51.211Z,7
2022-07-30T11:36:51.200Z,8
2022-07-30T11:37:52.347Z,8
2022-07-30T11:38:51.189Z,8
2022-07-30T11:39:51.161Z,7
2022-07-30T11:40:51.155Z,7
2022-07-30T11:41:51.146Z,7
2022-07-30T11:42:51.137Z,6
2022-07-30T11:43:51.156Z,6
2022-07-30T11:44:51.162Z,6
2022-07-30T11:45:51.207Z,6
2022-07-30T11:46:51.213Z,5
2022-07-30T11:47:51.556Z,5
2022-07-30T11:48:51.248Z,5
2022-07-30T11:49:51.153Z,6
2022-07-30T11:50:51.158Z,6
2022-07-30T11:51:51.155Z,6
2022-07-30T11:52:51.209Z,6
2022-07-30T11:53:51.197Z,4
2022-07-30T11:54:51.291Z,4
2022-07-30T11:55:51.172Z,5
2022-07-30T11:56:51.158Z,5
2022-07-30T11:57:51.143Z,4
2022-07-30T11:58:51.156Z,6
2022-07-30T11:59:51.207Z,5
2022-07-30T12:00:51.274Z,5
2022-07-30T12:01:51.147Z,4
2022-07-30T12:02:51.196Z,4
2022-07-30T12:03:51.156Z,5
2022-07-30T12:04:51.135Z,4
2022-07-30T12:05:51.309Z,4
2022-07-30T12:06:51.178Z,4
2022-07-30T12:07:51.211Z,5
2022-07-30T12:08:52.938Z,5
2022-07-30T12:09:51.137Z,5
2022-07-30T12:10:51.161Z,4
2022-07-30T12:11:51.147Z,5
2022-07-30T12:12:51.143Z,5
2022-07-30T12:13:51.162Z,5
2022-07-30T12:14:51.235Z,4
2022-07-30T12:15:51.181Z,4
2022-07-30T12:16:51.177Z,4
2022-07-30T12:18:00.809Z,3
2022-07-30T12:18:51.193Z,3
2022-07-30T12:19:51.146Z,3
2022-07-30T12:20:51.209Z,3
2022-07-30T12:21:53.539Z,4
2022-07-30T12:22:51.185Z,4
2022-07-30T12:23:51.143Z,4
2022-07-30T12:24:51.154Z,3
2022-07-30T12:25:51.210Z,3
2022-07-30T12:26:51.140Z,4
2022-07-30T12:27:52.391Z,3
2022-07-30T12:28:51.235Z,3
2022-07-30T12:29:51.163Z,3
2022-07-30T12:30:51.158Z,3
2022-07-30T12:31:51.140Z,3
2022-07-30T12:32:51.158Z,3
2022-07-30T12:33:51.280Z,3
2022-07-30T12:34:51.193Z,3
2022-07-30T12:35:51.226Z,3
2022-07-30T12:36:51.161Z,3
2022-07-30T12:37:51.145Z,3
2022-07-30T12:38:51.207Z,3
2022-07-30T12:39:51.154Z,3
2022-07-30T12:40:51.160Z,3
2022-07-30T12:41:51.173Z,3
2022-07-30T12:42:51.202Z,3
2022-07-30T12:43:51.144Z,3
2022-07-30T12:44:51.143Z,3
2022-07-30T12:45:54.177Z,3
2022-07-30T12:46:51.232Z,3
2022-07-30T12:47:51.165Z,3
2022-07-30T12:48:51.310Z,3
2022-07-30T12:49:53.328Z,3
2022-07-30T12:50:51.182Z,3
2022-07-30T12:51:51.153Z,3
2022-07-30T12:52:51.170Z,3
2022-07-30T12:53:51.147Z,3
2022-07-30T12:54:51.158Z,3
2022-07-30T12:55:51.250Z,3
2022-07-30T12:56:51.218Z,3
2022-07-30T12:57:51.169Z,3
2022-07-30T12:58:51.226Z,2
2022-07-30T12:59:51.193Z,2
2022-07-30T13:00:51.216Z,3
2022-07-30T13:01:51.199Z,2
2022-07-30T13:02:51.208Z,2
2022-07-30T13:03:51.206Z,3
2022-07-30T13:05:11.473Z,2
2022-07-30T13:05:51.170Z,2
2022-07-30T13:06:51.179Z,3
2022-07-30T13:07:51.173Z,3
2022-07-30T13:08:51.187Z,3
2022-07-30T13:09:51.252Z,3
2022-07-30T13:10:51.244Z,3
2022-07-30T13:11:51.173Z,3
2022-07-30T13:12:51.175Z,3
2022-07-30T13:13:51.172Z,3
2022-07-30T13:14:51.164Z,3
2022-07-30T13:15:53.935Z,3
2022-07-30T13:16:51.214Z,3
2022-07-30T13:17:51.196Z,3
2022-07-30T13:18:51.171Z,3
2022-07-30T13:19:51.146Z,3
2022-07-30T13:20:51.166Z,3
2022-07-30T13:21:51.151Z,3
2022-07-30T13:22:51.163Z,3
2022-07-30T13:23:51.212Z,3
2022-07-30T13:24:51.203Z,3
2022-07-30T13:25:51.179Z,3
2022-07-30T13:26:51.192Z,3
2022-07-30T13:27:51.218Z,3
2022-07-30T13:28:51.204Z,3
2022-07-30T13:29:51.160Z,3
2022-07-30T13:30:51.240Z,2
2022-07-30T13:31:51.217Z,2
2022-07-30T13:32:51.168Z,3
2022-07-30T13:33:51.493Z,2
2022-07-30T13:34:51.374Z,2
2022-07-30T13:35:51.183Z,2
2022-07-30T13:36:51.162Z,2
2022-07-30T13:37:51.270Z,2
2022-07-30T13:38:52.401Z,2
2022-07-30T13:39:51.186Z,2
2022-07-30T13:40:51.186Z,3
2022-07-30T13:41:51.290Z,2
2022-07-30T13:42:51.165Z,3
2022-07-30T13:43:51.206Z,3
2022-07-30T13:44:51.212Z,2
2022-07-30T13:45:51.216Z,2
2022-07-30T13:46:51.190Z,2
2022-07-30T13:47:51.861Z,2
2022-07-30T13:48:51.309Z,2
2022-07-30T13:49:51.202Z,2
2022-07-30T13:50:51.210Z,3
2022-07-30T13:51:51.207Z,3
2022-07-30T13:52:51.217Z,2
2022-07-30T13:53:51.161Z,2
2022-07-30T13:54:51.174Z,2
2022-07-30T13:55:51.199Z,2
2022-07-30T13:56:51.172Z,3
2022-07-30T13:57:51.369Z,3
2022-07-30T13:58:51.215Z,2
2022-07-30T13:59:51.227Z,2
2022-07-30T14:00:51.180Z,2
2022-07-30T14:01:51.218Z,3
2022-07-30T14:02:51.176Z,2
2022-07-30T14:03:51.245Z,2
2022-07-30T14:04:51.182Z,2
2022-07-30T14:05:51.249Z,2
2022-07-30T14:06:51.221Z,2
2022-07-30T14:07:51.174Z,2
2022-07-30T14:08:51.163Z,2
2022-07-30T14:09:54.403Z,2
2022-07-30T14:10:51.203Z,2
2022-07-30T14:11:51.168Z,2
2022-07-30T14:12:51.266Z,2
2022-07-30T14:13:51.212Z,2
2022-07-30T14:14:51.188Z,2
2022-07-30T14:15:51.219Z,3
2022-07-30T14:16:58.686Z,2
2022-07-30T14:17:56.021Z,3
2022-07-30T14:18:51.192Z,2
2022-07-30T14:19:51.224Z,2
2022-07-30T14:20:51.243Z,2
2022-07-30T14:21:51.178Z,2
2022-07-30T14:22:51.177Z,2
2022-07-30T14:23:51.173Z,2
2022-07-30T14:24:51.182Z,3
2022-07-30T14:25:51.195Z,2
2022-07-30T14:26:55.791Z,2
2022-07-30T14:27:51.223Z,2
2022-07-30T14:28:51.169Z,3
2022-07-30T14:29:51.173Z,3
2022-07-30T14:30:51.251Z,2
2022-07-30T14:31:51.168Z,2
2022-07-30T14:32:57.353Z,3
2022-07-30T14:33:51.250Z,2
2022-07-30T14:34:51.212Z,2
2022-07-30T14:35:51.195Z,2
2022-07-30T14:36:51.168Z,2
2022-07-30T14:37:51.179Z,2
2022-07-30T14:38:54.011Z,2
2022-07-30T14:39:51.178Z,2
2022-07-30T14:40:51.314Z,2
2022-07-30T14:41:52.500Z,2
2022-07-30T14:42:51.176Z,2
2022-07-30T14:43:51.198Z,2
2022-07-30T14:44:55.315Z,2